createdAt,value
2018-04-25T00:01:35.389Z,23.70
2018-04-25T00:04:04.386Z,25.20
2018-04-25T00:06:32.636Z,23.13
2018-04-25T00:09:00.876Z,21.87
2018-04-25T00:11:29.854Z,22.60
2018-04-25T00:13:58.085Z,21.70
2018-04-25T00:16:26.309Z,27.23
2018-04-25T00:18:54.549Z,22.40
2018-04-25T00:21:23.533Z,24.20
2018-04-25T00:23:51.773Z,27.23
2018-04-25T00:26:20.298Z,20.97
2018-04-25T00:28:48.537Z,23.93
2018-04-25T00:31:16.773Z,23.67
2018-04-25T00:33:45.010Z,28.63
2018-04-25T00:36:13.281Z,23.73
2018-04-25T00:38:42.340Z,26.10
2018-04-25T00:41:10.569Z,23.43
2018-04-25T00:43:38.876Z,25.17
2018-04-25T00:46:07.134Z,25.90
2018-04-25T00:48:35.363Z,24.23
2018-04-25T00:51:03.632Z,27.57
2018-04-25T00:53:32.740Z,23.33
2018-04-25T00:56:01.762Z,26.80
2018-04-25T00:58:29.990Z,26.37
2018-04-25T01:00:58.217Z,30.43
2018-04-25T01:03:27.208Z,23.80
2018-04-25T01:05:55.442Z,25.00
2018-04-25T01:08:23.685Z,25.87
2018-04-25T01:10:51.929Z,23.43
2018-04-25T01:13:20.170Z,23.97
2018-04-25T01:15:48.402Z,24.80
2018-04-25T01:18:16.641Z,25.80
2018-04-25T01:20:44.865Z,24.40
2018-04-25T01:23:19.848Z,27.97
2018-04-25T01:25:48.093Z,25.20
2018-04-25T01:28:24.523Z,29.57
2018-04-25T01:30:57.377Z,27.30
2018-04-25T01:33:29.034Z,25.87
2018-04-25T01:36:20.618Z,27.93
2018-04-25T01:38:49.633Z,25.33
2018-04-25T01:41:17.893Z,29.93
2018-04-25T01:43:51.020Z,30.30
2018-04-25T01:46:20.066Z,28.50
2018-04-25T01:52:16.333Z,29.53
2018-04-25T01:55:02.615Z,29.40
2018-04-25T01:57:48.836Z,32.37
2018-04-25T02:00:35.022Z,31.47
2018-04-25T02:03:08.782Z,32.47
2018-04-25T02:05:36.786Z,33.10
2018-04-25T02:08:05.778Z,31.73
2018-04-25T02:10:34.010Z,32.00
2018-04-25T02:13:02.239Z,34.17
2018-04-25T02:15:30.476Z,33.70
2018-04-25T02:17:58.692Z,35.50
2018-04-25T02:20:26.956Z,38.63
2018-04-25T02:22:55.295Z,38.87
2018-04-25T02:25:23.503Z,36.43
2018-04-25T02:27:52.506Z,37.87
2018-04-25T02:30:20.730Z,38.63
2018-04-25T02:32:48.965Z,38.57
2018-04-25T02:35:17.186Z,41.77
2018-04-25T02:37:46.194Z,41.73
2018-04-25T02:40:15.200Z,42.67
2018-04-25T02:42:44.214Z,43.70
2018-04-25T02:45:12.469Z,44.67
2018-04-25T02:47:40.681Z,45.77
2018-04-25T02:50:08.940Z,46.17
2018-04-25T02:52:37.173Z,49.60
2018-04-25T02:55:05.393Z,47.17
2018-04-25T02:57:33.622Z,45.53
2018-04-25T03:00:02.613Z,50.70
2018-04-25T03:02:30.841Z,50.00
2018-04-25T03:04:59.190Z,53.10
2018-04-25T03:07:27.384Z,60.33
2018-04-25T03:09:55.623Z,51.50
2018-04-25T03:12:23.836Z,53.20
2018-04-25T03:14:52.073Z,50.87
2018-04-25T03:17:20.305Z,51.40
2018-04-25T03:19:48.526Z,51.40
2018-04-25T03:22:17.535Z,50.27
2018-04-25T03:24:46.527Z,53.47
2018-04-25T03:27:14.809Z,52.20
2018-04-25T03:29:43.050Z,52.27
2018-04-25T03:32:11.290Z,51.30
2018-04-25T03:34:39.546Z,50.00
2018-04-25T03:37:07.805Z,51.20
2018-04-25T03:39:36.030Z,50.17
2018-04-25T03:42:04.265Z,53.53
2018-04-25T03:44:33.261Z,47.43
2018-04-25T03:47:01.591Z,46.77
2018-04-25T03:49:29.836Z,49.60
2018-04-25T03:51:58.091Z,49.33
2018-04-25T03:54:26.520Z,44.43
2018-04-25T03:56:55.522Z,45.10
2018-04-25T03:59:23.795Z,44.10
2018-04-25T04:01:52.019Z,42.80
2018-04-25T04:04:21.012Z,41.13
2018-04-25T04:06:50.754Z,42.90
2018-04-25T04:09:19.050Z,41.23
2018-04-25T04:11:47.289Z,42.53
2018-04-25T04:14:15.591Z,38.67
2018-04-25T04:16:44.393Z,41.63
2018-04-25T04:19:12.637Z,39.20
2018-04-25T04:21:40.881Z,43.30
2018-04-25T04:24:09.902Z,38.10
2018-04-25T04:26:38.139Z,38.07
2018-04-25T04:29:06.377Z,38.30
2018-04-25T04:31:35.373Z,39.70
2018-04-25T04:34:04.369Z,38.97
2018-04-25T04:36:33.358Z,41.53
2018-04-25T04:39:01.587Z,40.10
2018-04-25T04:41:29.822Z,37.20
2018-04-25T04:43:58.052Z,36.93
2018-04-25T04:46:27.057Z,38.03
2018-04-25T04:48:56.056Z,37.77
2018-04-25T04:51:25.879Z,37.97
2018-04-25T04:53:54.869Z,37.33
2018-04-25T04:56:23.101Z,37.27
2018-04-25T04:58:51.321Z,35.73
2018-04-25T05:01:19.669Z,35.50
2018-04-25T05:03:47.960Z,37.47
2018-04-25T05:06:16.973Z,37.87
2018-04-25T05:08:46.092Z,35.20
2018-04-25T05:11:14.295Z,33.47
2018-04-25T05:13:42.559Z,32.73
2018-04-25T05:16:10.819Z,33.07
2018-04-25T05:18:39.057Z,34.63
2018-04-25T05:21:07.382Z,30.47
2018-04-25T05:23:35.587Z,32.27
2018-04-25T05:26:04.578Z,29.17
2018-04-25T05:28:32.801Z,30.90
2018-04-25T05:31:01.043Z,30.47
2018-04-25T05:33:30.022Z,28.70
2018-04-25T05:35:58.269Z,28.73
2018-04-25T05:38:27.279Z,32.57
2018-04-25T05:40:56.273Z,29.07
2018-04-25T05:43:25.304Z,26.63
2018-04-25T05:45:54.284Z,29.87
2018-04-25T05:48:22.506Z,27.67
2018-04-25T05:50:50.749Z,29.97
2018-04-25T05:53:19.012Z,30.70
2018-04-25T05:55:47.241Z,28.50
2018-04-25T05:58:15.481Z,28.00
2018-04-25T06:00:43.752Z,26.70
2018-04-25T06:03:12.018Z,27.93
2018-04-25T06:05:40.347Z,26.37
2018-04-25T06:08:08.584Z,27.60
2018-04-25T06:10:37.670Z,26.10
2018-04-25T06:13:06.516Z,26.63
2018-04-25T06:15:34.772Z,26.20
2018-04-25T06:18:02.993Z,27.97
2018-04-25T06:20:31.224Z,26.40
2018-04-25T06:22:59.446Z,25.17
2018-04-25T06:25:28.440Z,22.50
2018-04-25T06:27:57.842Z,24.63
2018-04-25T06:30:26.032Z,21.00
2018-04-25T06:32:54.261Z,21.40
2018-04-25T06:35:22.496Z,20.23
2018-04-25T06:37:50.746Z,19.90
2018-04-25T06:40:18.985Z,18.33
2018-04-25T06:42:47.205Z,18.17
2018-04-25T06:45:15.458Z,19.87
2018-04-25T06:47:43.728Z,18.10
2018-04-25T06:50:12.076Z,21.23
2018-04-25T06:52:41.067Z,17.63
2018-04-25T06:55:09.353Z,18.47
2018-04-25T06:57:38.395Z,18.27
2018-04-25T07:00:06.710Z,16.93
2018-04-25T07:02:34.956Z,16.97
2018-04-25T07:05:03.936Z,15.57
2018-04-25T07:07:32.924Z,14.60
2018-04-25T07:10:01.163Z,14.43
2018-04-25T07:12:29.405Z,15.40
2018-04-25T07:14:57.626Z,13.57
2018-04-25T07:17:25.893Z,12.60
2018-04-25T07:19:54.168Z,12.17
2018-04-25T07:22:22.365Z,12.57
2018-04-25T07:24:50.595Z,10.47
2018-04-25T07:27:20.373Z,11.87
2018-04-25T07:29:49.321Z,9.80
2018-04-25T07:32:17.570Z,7.43
2018-04-25T07:34:45.859Z,6.47
2018-04-25T07:37:14.207Z,7.77
2018-04-25T07:39:43.259Z,5.30
2018-04-25T07:42:11.507Z,6.00
2018-04-25T07:44:41.510Z,4.93
2018-04-25T07:47:09.733Z,5.37
2018-04-25T07:49:38.809Z,4.80
2018-04-25T07:52:07.979Z,4.57
2018-04-25T07:54:38.531Z,4.60
2018-04-25T07:57:06.730Z,5.00
2018-04-25T07:59:35.709Z,5.73
2018-04-25T08:02:06.491Z,4.27
2018-04-25T08:04:35.705Z,4.57
2018-04-25T08:07:04.681Z,5.03
2018-04-25T08:09:33.050Z,3.43
2018-04-25T08:12:02.182Z,4.80
2018-04-25T08:14:48.277Z,5.13
2018-04-25T08:17:28.482Z,39.57
2018-04-25T08:20:08.488Z,4.67
2018-04-25T08:22:36.721Z,4.50
2018-04-25T08:25:05.705Z,5.53
2018-04-25T08:27:34.656Z,6.20
2018-04-25T08:30:12.911Z,3.30
2018-04-25T08:32:41.202Z,6.67
2018-04-25T08:35:09.792Z,3.07
2018-04-25T08:37:38.886Z,7.93
2018-04-25T08:40:07.960Z,4.17
2018-04-25T08:42:36.270Z,6.83
2018-04-25T08:45:04.581Z,7.87
2018-04-25T08:47:33.545Z,6.43
2018-04-25T08:50:06.625Z,7.10
2018-04-25T08:52:35.601Z,9.83
2018-04-25T08:55:05.740Z,7.43
2018-04-25T08:57:34.111Z,7.93
2018-04-25T09:00:04.656Z,6.17
2018-04-25T09:02:34.910Z,6.97
2018-04-25T09:05:03.141Z,9.10
2018-04-25T09:07:31.361Z,6.47
2018-04-25T09:10:00.148Z,10.13
2018-04-25T09:12:30.962Z,6.63
2018-04-25T09:15:02.214Z,5.60
2018-04-25T09:17:30.460Z,4.97
2018-04-25T09:20:04.418Z,12.07
2018-04-25T09:22:33.633Z,5.50
2018-04-25T09:25:01.861Z,5.87
2018-04-25T09:27:30.645Z,24.83
2018-04-25T09:29:59.642Z,3.93
2018-04-25T09:32:27.939Z,12.27
2018-04-25T09:34:56.837Z,4.87
2018-04-25T09:37:25.079Z,2.97
2018-04-25T09:39:56.440Z,3.67
2018-04-25T09:42:24.658Z,5.53
2018-04-25T09:44:52.865Z,5.33
2018-04-25T09:47:22.554Z,5.73
2018-04-25T09:49:50.760Z,4.73
2018-04-25T09:52:19.065Z,5.07
2018-04-25T09:54:49.448Z,6.43
2018-04-25T09:57:17.717Z,7.17
2018-04-25T09:59:45.945Z,3.53
2018-04-25T10:02:20.015Z,4.87
2018-04-25T10:04:49.036Z,5.23
2018-04-25T10:07:21.354Z,9.03
2018-04-25T10:09:49.621Z,6.20
2018-04-25T10:12:17.857Z,3.30
2018-04-25T10:14:46.178Z,7.40
2018-04-25T10:17:14.559Z,4.73
2018-04-25T10:19:42.703Z,6.83
2018-04-25T10:22:11.735Z,4.77
2018-04-25T10:24:40.538Z,3.83
2018-04-25T10:27:09.739Z,6.60
2018-04-25T10:29:38.740Z,8.30
2018-04-25T10:32:07.203Z,6.67
2018-04-25T10:34:35.574Z,4.70
2018-04-25T10:37:03.810Z,4.07
2018-04-25T10:39:31.991Z,3.70
2018-04-25T10:42:00.214Z,3.83
2018-04-25T10:44:29.359Z,6.53
2018-04-25T10:46:57.593Z,4.80
2018-04-25T10:49:27.159Z,2.13
2018-04-25T10:51:55.925Z,2.90
2018-04-25T10:54:24.222Z,3.93
2018-04-25T10:56:52.513Z,2.27
2018-04-25T10:59:20.714Z,3.57
2018-04-25T11:01:50.476Z,2.80
2018-04-25T11:04:19.365Z,1.50
2018-04-25T11:06:47.516Z,4.13
2018-04-25T11:09:16.515Z,7.10
2018-04-25T11:11:45.523Z,2.57
2018-04-25T11:14:13.753Z,2.20
2018-04-25T11:16:42.024Z,1.53
2018-04-25T11:19:11.118Z,2.30
2018-04-25T11:21:39.460Z,2.70
2018-04-25T11:24:07.775Z,1.83
2018-04-25T11:26:37.071Z,3.30
2018-04-25T11:29:05.370Z,1.37
2018-04-25T11:31:33.649Z,3.23
2018-04-25T11:34:01.885Z,3.13
2018-04-25T11:36:30.097Z,5.60
2018-04-25T11:38:59.657Z,3.00
2018-04-25T11:41:27.882Z,4.53
2018-04-25T11:43:56.161Z,5.50
2018-04-25T11:46:24.373Z,6.20
2018-04-25T11:48:53.509Z,4.70
2018-04-25T11:51:21.774Z,3.77
2018-04-25T11:53:49.988Z,4.10
2018-04-25T11:56:19.038Z,6.60
2018-04-25T11:58:47.246Z,4.30
2018-04-25T12:01:16.379Z,13.00
2018-04-25T12:03:45.432Z,3.10
2018-04-25T12:06:13.664Z,3.53
2018-04-25T12:08:42.946Z,9.80
2018-04-25T12:11:11.186Z,4.63
2018-04-25T12:13:39.562Z,3.83
2018-04-25T12:16:07.994Z,5.77
2018-04-25T12:18:37.939Z,6.27
2018-04-25T12:21:12.178Z,4.70
2018-04-25T12:23:45.534Z,4.57
2018-04-25T12:26:14.499Z,3.53
2018-04-25T12:28:42.720Z,8.07
2018-04-25T12:31:10.969Z,6.57
2018-04-25T12:33:39.589Z,5.27
2018-04-25T12:36:07.943Z,10.50
2018-04-25T12:38:36.925Z,6.17
2018-04-25T12:41:05.299Z,6.23
2018-04-25T12:43:33.530Z,4.60
2018-04-25T12:46:02.677Z,2.50
2018-04-25T12:48:31.046Z,4.87
2018-04-25T12:51:00.112Z,4.43
2018-04-25T12:53:29.860Z,5.10
2018-04-25T12:55:58.226Z,4.63
2018-04-25T12:58:28.372Z,3.73
2018-04-25T13:00:57.763Z,4.43
2018-04-25T13:03:26.077Z,6.13
2018-04-25T13:05:54.430Z,7.97
2018-04-25T13:08:29.656Z,6.03
2018-04-25T13:10:57.900Z,2.63
2018-04-25T13:13:26.201Z,4.40
2018-04-25T13:15:54.912Z,4.20
2018-04-25T13:18:24.896Z,4.00
2018-04-25T13:23:36.835Z,4.80
2018-04-25T13:26:05.859Z,6.93
2018-04-25T13:28:34.144Z,3.50
2018-04-25T13:31:02.451Z,5.77
2018-04-25T13:33:31.073Z,2.17
2018-04-25T13:35:59.500Z,7.73
2018-04-25T13:38:28.426Z,8.33
2018-04-25T13:40:57.752Z,5.67
2018-04-25T13:43:26.803Z,9.00
2018-04-25T13:45:55.039Z,14.27
2018-04-25T13:48:23.282Z,7.50
2018-04-25T13:50:51.533Z,4.13
2018-04-25T13:53:19.985Z,5.03
2018-04-25T13:55:48.978Z,7.10
2018-04-25T13:58:18.004Z,3.07
2018-04-25T14:00:47.047Z,5.43
2018-04-25T14:03:15.319Z,5.53
2018-04-25T14:05:43.538Z,8.20
2018-04-25T14:08:11.740Z,2.77
2018-04-25T14:10:39.988Z,4.17
2018-04-25T14:13:09.861Z,3.67
2018-04-25T14:15:39.403Z,4.53
2018-04-25T14:18:08.377Z,9.47
2018-04-25T14:20:36.621Z,4.60
2018-04-25T14:23:08.506Z,4.70
2018-04-25T14:25:36.744Z,7.93
2018-04-25T14:28:05.814Z,3.83
2018-04-25T14:30:42.603Z,6.37
2018-04-25T14:33:16.391Z,3.53
2018-04-25T14:35:44.679Z,2.93
2018-04-25T14:38:12.888Z,3.53
2018-04-25T14:40:42.225Z,5.00
2018-04-25T14:43:11.184Z,4.20
2018-04-25T14:45:39.572Z,4.03
2018-04-25T14:48:10.516Z,3.87
2018-04-25T14:50:41.979Z,4.43
2018-04-25T14:53:20.666Z,3.10
2018-04-25T14:55:49.661Z,4.10
2018-04-25T14:58:17.894Z,5.07
2018-04-25T15:00:46.881Z,4.00
2018-04-25T15:03:15.146Z,5.50
2018-04-25T15:05:43.381Z,4.27
2018-04-25T15:08:13.251Z,4.60
2018-04-25T15:10:41.495Z,4.07
2018-04-25T15:13:09.750Z,3.80
2018-04-25T15:15:37.946Z,2.40
2018-04-25T15:18:06.174Z,3.63
2018-04-25T15:20:34.768Z,5.53
2018-04-25T15:23:03.051Z,3.60
2018-04-25T15:25:31.333Z,5.17
2018-04-25T15:27:59.525Z,5.33
2018-04-25T15:30:27.772Z,12.70
2018-04-25T15:32:55.997Z,4.80
2018-04-25T15:35:24.230Z,3.80
2018-04-25T15:37:52.642Z,2.23
2018-04-25T15:40:20.847Z,2.53
2018-04-25T15:42:49.158Z,4.70
2018-04-25T15:45:18.515Z,5.73
2018-04-25T15:47:46.782Z,4.37
2018-04-25T15:50:16.210Z,4.83
2018-04-25T15:52:44.451Z,3.00
2018-04-25T15:55:12.669Z,5.27
2018-04-25T15:57:41.714Z,3.73
2018-04-25T16:00:09.916Z,4.60
2018-04-25T16:02:38.987Z,3.07
2018-04-25T16:05:08.003Z,3.67
2018-04-25T16:07:37.050Z,6.10
2018-04-25T16:10:05.358Z,4.17
2018-04-25T16:12:33.622Z,2.73
2018-04-25T16:15:01.827Z,2.63
2018-04-25T16:17:30.093Z,4.53
2018-04-25T16:19:58.372Z,2.77
2018-04-25T16:22:26.677Z,3.83
2018-04-25T16:24:55.021Z,3.90
2018-04-25T16:27:23.347Z,4.43
2018-04-25T16:29:51.612Z,4.43
2018-04-25T16:32:19.885Z,3.83
2018-04-25T16:34:48.857Z,3.23
2018-04-25T16:37:17.187Z,3.77
2018-04-25T16:39:45.439Z,2.23
2018-04-25T16:42:13.709Z,3.00
2018-04-25T16:44:41.970Z,2.67
2018-04-25T16:47:10.138Z,4.23
2018-04-25T16:49:39.138Z,1.90
2018-04-25T16:52:08.125Z,5.70
2018-04-25T16:54:36.366Z,3.83
2018-04-25T16:57:04.750Z,1.70
2018-04-25T16:59:32.864Z,3.00
2018-04-25T17:02:01.089Z,2.93
2018-04-25T17:04:30.087Z,7.53
2018-04-25T17:06:58.879Z,2.33
2018-04-25T17:09:27.300Z,3.87
2018-04-25T17:11:56.293Z,3.63
2018-04-25T17:14:26.066Z,1.30
2018-04-25T17:16:54.426Z,2.70
2018-04-25T17:19:23.538Z,3.93
2018-04-25T17:21:51.834Z,2.87
2018-04-25T17:24:20.184Z,5.63
2018-04-25T17:26:48.373Z,2.93
2018-04-25T17:29:16.588Z,1.83
2018-04-25T17:31:44.817Z,2.03
2018-04-25T17:34:13.227Z,3.90
2018-04-25T17:36:41.459Z,2.67
2018-04-25T17:39:09.663Z,2.57
2018-04-25T17:41:38.661Z,4.13
2018-04-25T17:44:06.904Z,3.43
2018-04-25T17:46:35.135Z,5.63
2018-04-25T17:49:03.454Z,5.37
2018-04-25T17:51:31.674Z,3.87
2018-04-25T17:54:00.112Z,3.00
2018-04-25T17:56:28.403Z,3.97
2018-04-25T17:58:56.593Z,3.10
2018-04-25T18:01:25.605Z,3.47
2018-04-25T18:03:54.712Z,3.63
2018-04-25T18:06:22.973Z,4.53
2018-04-25T18:08:51.404Z,4.40
2018-04-25T18:11:21.640Z,2.50
2018-04-25T18:13:50.642Z,2.70
2018-04-25T18:16:18.850Z,3.33
2018-04-25T18:18:47.078Z,2.00
2018-04-25T18:21:15.318Z,1.83
2018-04-25T18:23:43.533Z,2.30
2018-04-25T18:26:12.914Z,4.17
2018-04-25T18:28:41.150Z,3.73
2018-04-25T18:31:09.376Z,2.20
2018-04-25T18:33:38.361Z,2.93
2018-04-25T18:36:07.472Z,3.50
2018-04-25T18:38:35.704Z,3.27
2018-04-25T18:41:03.940Z,4.40
2018-04-25T18:43:32.247Z,5.57
2018-04-25T18:46:00.474Z,5.40
2018-04-25T18:48:28.711Z,5.10
2018-04-25T18:50:56.958Z,3.50
2018-04-25T18:53:25.189Z,4.10
2018-04-25T18:55:53.507Z,2.70
2018-04-25T18:58:21.749Z,4.80
2018-04-25T19:00:50.020Z,3.87
2018-04-25T19:03:18.309Z,3.70
2018-04-25T19:05:46.456Z,4.40
2018-04-25T19:08:16.267Z,2.60
2018-04-25T19:10:44.493Z,2.80
2018-04-25T19:13:12.716Z,3.47
2018-04-25T19:15:40.929Z,3.67
2018-04-25T19:18:09.165Z,3.17
2018-04-25T19:20:37.394Z,3.40
2018-04-25T19:23:05.619Z,2.00
2018-04-25T19:25:34.640Z,3.83
2018-04-25T19:28:02.895Z,3.30
2018-04-25T19:30:31.113Z,2.40
2018-04-25T19:32:59.369Z,4.93
2018-04-25T19:35:28.303Z,5.03
2018-04-25T19:37:56.538Z,3.27
2018-04-25T19:40:25.553Z,4.97
2018-04-25T19:42:53.781Z,4.30
2018-04-25T19:45:22.091Z,6.57
2018-04-25T19:47:50.297Z,3.10
2018-04-25T19:50:18.521Z,2.47
2018-04-25T19:52:47.521Z,2.50
2018-04-25T19:55:15.839Z,4.37
2018-04-25T19:57:44.056Z,4.63
2018-04-25T20:00:12.260Z,2.93
2018-04-25T20:02:40.672Z,1.90
2018-04-25T20:05:14.917Z,2.30
2018-04-25T20:07:43.106Z,2.30
2018-04-25T20:10:12.150Z,2.40
2018-04-25T20:12:40.521Z,3.03
2018-04-25T20:15:08.792Z,2.87
2018-04-25T20:17:36.984Z,5.37
2018-04-25T20:20:05.256Z,4.93
2018-04-25T20:22:33.502Z,2.53
2018-04-25T20:25:01.730Z,1.90
2018-04-25T20:27:29.963Z,2.20
2018-04-25T20:29:58.202Z,2.17
2018-04-25T20:32:27.205Z,3.87
2018-04-25T20:34:56.275Z,1.63
2018-04-25T20:37:25.309Z,4.43
2018-04-25T20:39:54.304Z,2.47
2018-04-25T20:42:22.525Z,2.77
2018-04-25T20:44:50.865Z,3.03
2018-04-25T20:47:19.097Z,4.27
2018-04-25T20:49:48.080Z,2.57
2018-04-25T20:52:16.305Z,2.00
2018-04-25T20:54:44.532Z,2.80
2018-04-25T20:57:12.786Z,2.40
2018-04-25T20:59:41.028Z,2.53
2018-04-25T21:02:09.308Z,2.87
2018-04-25T21:04:37.536Z,3.10
2018-04-25T21:07:06.565Z,2.87
2018-04-25T21:09:35.541Z,2.73
2018-04-25T21:12:03.789Z,2.47
2018-04-25T21:14:32.017Z,1.97
2018-04-25T21:17:00.946Z,2.97
2018-04-25T21:19:29.941Z,2.70
2018-04-25T21:21:58.999Z,4.00
2018-04-25T21:24:27.221Z,3.00
2018-04-25T21:26:56.237Z,4.23
2018-04-25T21:29:24.478Z,3.07
2018-04-25T21:31:52.734Z,3.03
2018-04-25T21:34:20.944Z,3.87
2018-04-25T21:36:49.202Z,3.80
2018-04-25T21:39:18.196Z,3.37
2018-04-25T21:41:46.416Z,3.40
2018-04-25T21:44:14.686Z,3.20
2018-04-25T21:46:43.664Z,4.10
2018-04-25T21:49:11.882Z,6.33
2018-04-25T21:51:40.850Z,6.90
2018-04-25T21:54:09.106Z,4.87
2018-04-25T21:56:37.308Z,6.80
2018-04-25T21:59:05.536Z,6.77
2018-04-25T22:01:33.837Z,4.70
2018-04-25T22:04:02.833Z,6.10
2018-04-25T22:06:31.858Z,5.80
2018-04-25T22:09:00.090Z,4.50
2018-04-25T22:11:28.268Z,6.83
2018-04-25T22:13:56.513Z,4.17
2018-04-25T22:16:25.517Z,4.60
2018-04-25T22:18:54.498Z,9.07
2018-04-25T22:21:22.705Z,5.60
2018-04-25T22:23:51.724Z,4.80
2018-04-25T22:26:20.716Z,7.90
2018-04-25T22:28:49.711Z,7.33
2018-04-25T22:31:17.926Z,9.97
2018-04-25T22:33:46.921Z,8.47
2018-04-25T22:36:15.929Z,6.83
2018-04-25T22:38:44.924Z,7.43
2018-04-25T22:41:14.008Z,4.70
2018-04-25T22:43:43.025Z,7.33
2018-04-25T22:46:11.267Z,6.53
2018-04-25T22:48:39.491Z,9.00
2018-04-25T22:51:07.714Z,6.87
2018-04-25T22:53:35.932Z,6.67
2018-04-25T22:56:04.218Z,5.90
2018-04-25T22:58:32.473Z,5.40
2018-04-25T23:01:00.656Z,7.00
2018-04-25T23:03:28.963Z,7.70
2018-04-25T23:05:58.065Z,8.13
2018-04-25T23:08:27.134Z,7.33
2018-04-25T23:10:55.343Z,7.53
2018-04-25T23:13:23.754Z,6.57
2018-04-25T23:15:52.736Z,6.87
2018-04-25T23:18:20.970Z,7.03
2018-04-25T23:20:49.946Z,5.77
2018-04-25T23:23:18.920Z,7.47
2018-04-25T23:25:47.143Z,6.97
2018-04-25T23:28:16.126Z,7.07
2018-04-25T23:30:44.351Z,9.90
2018-04-25T23:33:12.578Z,8.70
2018-04-25T23:35:40.801Z,7.77
2018-04-25T23:38:09.013Z,7.97
2018-04-25T23:40:37.237Z,7.57
2018-04-25T23:43:05.512Z,9.23
2018-04-25T23:45:33.776Z,10.87
2018-04-25T23:48:02.773Z,8.13
2018-04-25T23:50:31.751Z,8.17
2018-04-25T23:52:59.957Z,8.77
2018-04-25T23:55:28.982Z,7.30
2018-04-25T23:57:57.246Z,7.20
